createdAt,value
2022-12-03T00:04:02.965Z,94
2022-12-03T00:09:04.609Z,94
2022-12-03T00:14:06.565Z,95
2022-12-03T00:19:07.862Z,95
2022-12-03T00:24:09.905Z,95
2022-12-03T00:29:11.161Z,96
2022-12-03T00:34:12.796Z,96
2022-12-03T00:39:14.264Z,97
2022-12-03T00:44:16.321Z,96
2022-12-03T00:49:18.067Z,96
2022-12-03T00:54:19.723Z,96
2022-12-03T00:59:21.765Z,96
2022-12-03T01:04:22.937Z,96
2022-12-03T01:09:24.278Z,97
2022-12-03T01:14:26.276Z,97
2022-12-03T01:19:27.413Z,97
2022-12-03T01:24:29.454Z,97
2022-12-03T01:29:30.851Z,97
2022-12-03T01:34:32.272Z,97
2022-12-03T01:39:34.272Z,97
2022-12-03T01:44:36.032Z,95
2022-12-03T01:49:37.183Z,93
2022-12-03T01:54:38.858Z,94
2022-12-03T01:59:40.231Z,94
2022-12-03T02:04:41.524Z,94
2022-12-03T02:09:43.729Z,94
2022-12-03T02:14:45.311Z,95
2022-12-03T02:19:46.519Z,94
2022-12-03T02:24:48.713Z,95
2022-12-03T02:29:50.506Z,95
2022-12-03T02:34:52.669Z,95
2022-12-03T02:39:54.280Z,94
2022-12-03T02:44:59.376Z,94
2022-12-03T02:49:58.013Z,94
2022-12-03T02:55:00.197Z,95
2022-12-03T03:00:01.461Z,95
2022-12-03T03:05:03.461Z,95
2022-12-03T03:10:04.746Z,94
2022-12-03T03:15:06.700Z,95
2022-12-03T03:20:08.131Z,96
2022-12-03T03:25:10.163Z,96
2022-12-03T03:30:11.912Z,95
2022-12-03T03:35:13.259Z,95
2022-12-03T03:40:15.321Z,95
2022-12-03T03:45:17.000Z,96
2022-12-03T03:50:18.543Z,97
2022-12-03T03:55:20.130Z,97
2022-12-03T04:00:22.045Z,96
2022-12-03T04:05:23.683Z,96
2022-12-03T04:10:25.285Z,97
2022-12-03T04:15:26.909Z,97
2022-12-03T04:20:28.081Z,97
2022-12-03T04:25:29.289Z,97
2022-12-03T04:30:31.058Z,97
2022-12-03T04:35:32.892Z,98
2022-12-03T04:40:34.588Z,97
2022-12-03T04:45:36.216Z,97
2022-12-03T04:50:37.309Z,97
2022-12-03T04:55:38.932Z,98
2022-12-03T05:00:40.408Z,97
2022-12-03T05:05:42.167Z,97
2022-12-03T05:10:43.551Z,98
2022-12-03T05:15:44.990Z,98
2022-12-03T05:20:52.899Z,98
2022-12-03T05:35:51.171Z,95
2022-12-03T05:40:52.911Z,95
2022-12-03T05:50:56.910Z,95
2022-12-03T05:55:58.267Z,95
2022-12-03T06:01:00.450Z,96
2022-12-03T06:16:04.481Z,95
2022-12-03T06:21:05.786Z,95
2022-12-03T06:26:07.772Z,95
2022-12-03T06:36:10.787Z,96
2022-12-03T06:41:12.058Z,96
2022-12-03T06:46:14.238Z,96
2022-12-03T06:51:15.808Z,96
2022-12-03T06:56:21.477Z,97
2022-12-03T07:01:19.667Z,97
2022-12-03T07:06:20.773Z,96
2022-12-03T07:11:22.833Z,95
2022-12-03T07:16:24.359Z,95
2022-12-03T07:21:25.962Z,95
2022-12-03T07:26:27.728Z,95
2022-12-03T07:31:29.961Z,95
2022-12-03T07:36:31.583Z,95
2022-12-03T07:41:32.954Z,95
2022-12-03T07:46:35.076Z,95
2022-12-03T07:51:36.524Z,94
2022-12-03T07:56:38.236Z,93
2022-12-03T08:01:40.529Z,94
2022-12-03T08:06:42.123Z,95
2022-12-03T08:11:43.404Z,96
2022-12-03T08:16:44.991Z,93
2022-12-03T08:21:46.587Z,92
2022-12-03T08:26:48.121Z,93
2022-12-03T08:31:49.626Z,92
2022-12-03T08:36:51.483Z,92
2022-12-03T08:41:52.739Z,91
2022-12-03T08:46:54.040Z,91
2022-12-03T08:51:55.423Z,91
2022-12-03T08:56:57.263Z,92
2022-12-03T09:01:58.910Z,90
2022-12-03T09:07:00.996Z,91
2022-12-03T09:12:02.896Z,90
2022-12-03T09:17:04.138Z,89
2022-12-03T09:22:05.673Z,88
2022-12-03T09:27:07.592Z,88
2022-12-03T09:32:11.461Z,89
2022-12-03T09:37:10.627Z,89
2022-12-03T09:42:12.682Z,89
2022-12-03T09:47:14.424Z,89
2022-12-03T09:52:16.304Z,90
2022-12-03T09:57:17.810Z,91
2022-12-03T10:02:19.459Z,92
2022-12-03T10:07:20.983Z,92
2022-12-03T10:12:22.195Z,92
2022-12-03T10:17:23.536Z,92
2022-12-03T10:22:25.294Z,91
2022-12-03T10:27:27.092Z,91
2022-12-03T10:32:28.554Z,91
2022-12-03T10:37:30.531Z,90
2022-12-03T10:42:32.478Z,90
2022-12-03T10:47:34.486Z,91
2022-12-03T10:52:35.957Z,90
2022-12-03T10:57:41.149Z,90
2022-12-03T11:02:39.019Z,91
2022-12-03T11:07:41.102Z,90
2022-12-03T11:12:42.854Z,91
2022-12-03T11:17:44.217Z,90
2022-12-03T11:22:45.324Z,89
2022-12-03T11:27:47.137Z,90
2022-12-03T11:32:49.245Z,92
2022-12-03T11:37:50.403Z,90
2022-12-03T11:42:52.485Z,89
2022-12-03T11:47:54.233Z,89
2022-12-03T11:52:55.961Z,89
2022-12-03T11:57:57.300Z,89
2022-12-03T12:02:58.912Z,90
2022-12-03T12:08:00.392Z,90
2022-12-03T12:13:02.074Z,90
2022-12-03T12:18:04.135Z,90
2022-12-03T12:23:05.402Z,89
2022-12-03T12:28:07.188Z,88
2022-12-03T12:33:08.596Z,88
2022-12-03T12:38:10.606Z,89
2022-12-03T12:43:15.447Z,89
2022-12-03T12:48:14.522Z,90
2022-12-03T12:53:16.383Z,89
2022-12-03T12:58:18.173Z,88
2022-12-03T13:03:20.078Z,90
2022-12-03T13:08:22.254Z,90
2022-12-03T13:13:23.990Z,88
2022-12-03T13:18:25.460Z,89
2022-12-03T13:23:27.020Z,89
2022-12-03T13:28:28.526Z,89
2022-12-03T13:33:30.107Z,91
2022-12-03T13:38:31.974Z,91
2022-12-03T13:43:33.284Z,92
2022-12-03T13:48:35.013Z,92
2022-12-03T13:53:36.570Z,92
2022-12-03T13:58:37.819Z,92
2022-12-03T14:03:39.094Z,93
2022-12-03T14:08:40.559Z,93
2022-12-03T14:13:48.669Z,93
2022-12-03T14:18:50.570Z,93
2022-12-03T14:23:51.849Z,92
2022-12-03T14:28:53.611Z,91
2022-12-03T14:33:54.930Z,92
2022-12-03T14:38:56.905Z,92
2022-12-03T14:43:58.302Z,92
2022-12-03T14:49:00.114Z,93
2022-12-03T14:54:01.862Z,95
2022-12-03T14:59:03.040Z,95
2022-12-03T15:04:04.545Z,96
2022-12-03T15:09:06.371Z,96
2022-12-03T15:14:07.551Z,93
2022-12-03T15:19:09.052Z,93
2022-12-03T15:24:10.783Z,93
2022-12-03T15:29:12.252Z,93
2022-12-03T15:34:17.411Z,93
2022-12-03T15:39:15.346Z,94
2022-12-03T15:44:17.186Z,95
2022-12-03T15:49:18.683Z,97
2022-12-03T15:54:20.274Z,97
2022-12-03T15:59:22.336Z,96
2022-12-03T16:04:24.521Z,96
2022-12-03T16:09:27.502Z,95
2022-12-03T16:14:28.326Z,96
2022-12-03T16:19:29.478Z,96
2022-12-03T16:24:30.648Z,96
2022-12-03T16:29:32.510Z,96
2022-12-03T16:34:33.990Z,96
2022-12-03T16:39:35.480Z,96
2022-12-03T16:44:36.780Z,96
2022-12-03T16:49:38.681Z,95
2022-12-03T16:54:40.562Z,95
2022-12-03T16:59:41.924Z,95
2022-12-03T17:04:43.835Z,96
2022-12-03T17:09:45.256Z,95
2022-12-03T17:14:46.565Z,96
2022-12-03T17:19:47.967Z,97
2022-12-03T17:24:49.138Z,96
2022-12-03T17:29:51.531Z,96
2022-12-03T17:34:53.078Z,96
2022-12-03T17:39:54.641Z,96
2022-12-03T17:44:56.385Z,96
2022-12-03T17:49:58.366Z,96
2022-12-03T17:55:11.156Z,96
2022-12-03T18:00:01.412Z,96
2022-12-03T18:05:02.851Z,96
2022-12-03T18:10:04.416Z,96
2022-12-03T18:15:06.276Z,97
2022-12-03T18:20:07.697Z,97
2022-12-03T18:25:09.587Z,97
2022-12-03T18:30:11.072Z,97
2022-12-03T18:35:13.151Z,97
2022-12-03T18:40:14.992Z,97
2022-12-03T18:45:17.143Z,97
2022-12-03T18:50:19.401Z,96
2022-12-03T18:55:21.541Z,96
2022-12-03T19:00:23.194Z,96
2022-12-03T19:05:25.185Z,96
2022-12-03T19:10:27.343Z,96
2022-12-03T19:15:28.521Z,95
2022-12-03T19:20:30.422Z,95
2022-12-03T19:25:32.361Z,96
2022-12-03T19:30:33.704Z,96
2022-12-03T19:35:35.714Z,96
2022-12-03T19:40:37.579Z,96
2022-12-03T19:45:39.371Z,97
2022-12-03T19:50:40.974Z,98
2022-12-03T19:55:42.253Z,98
2022-12-03T20:00:44.130Z,98
2022-12-03T20:05:46.358Z,97
2022-12-03T20:15:50.057Z,97
2022-12-03T20:35:56.581Z,96
2022-12-03T20:40:58.049Z,96
2022-12-03T20:46:02.796Z,97
2022-12-03T20:56:03.548Z,96
2022-12-03T21:06:07.293Z,97
2022-12-03T21:11:08.862Z,96
2022-12-03T21:16:10.975Z,96
2022-12-03T21:21:12.888Z,97
2022-12-03T21:26:14.543Z,98
2022-12-03T21:31:16.725Z,98
2022-12-03T21:36:18.241Z,97
2022-12-03T21:41:20.120Z,97
2022-12-03T21:47:08.537Z,97
2022-12-03T21:51:23.728Z,97
2022-12-03T21:56:25.553Z,97
2022-12-03T22:01:26.973Z,97
2022-12-03T22:06:28.679Z,97
2022-12-03T22:11:30.814Z,97
2022-12-03T22:16:32.175Z,97
2022-12-03T22:21:34.233Z,97
2022-12-03T22:26:35.752Z,97
2022-12-03T22:31:37.478Z,97
2022-12-03T22:36:39.222Z,98
2022-12-03T22:41:40.918Z,98
2022-12-03T22:46:42.964Z,97
2022-12-03T22:51:44.509Z,96
2022-12-03T22:56:46.395Z,95
2022-12-03T23:16:52.897Z,96
2022-12-03T23:21:54.735Z,96
2022-12-03T23:26:56.285Z,97
2022-12-03T23:31:58.183Z,97
2022-12-03T23:37:00.150Z,97
2022-12-03T23:42:01.944Z,96
2022-12-03T23:47:03.830Z,96
2022-12-03T23:52:05.259Z,96
2022-12-03T23:57:07.408Z,95
